createdAt,value
2022-07-26T00:02:26.283Z,32.97
2022-07-26T00:04:53.041Z,35.40
2022-07-26T00:07:19.610Z,38.65
2022-07-26T00:09:48.405Z,34.33
2022-07-26T00:12:15.559Z,38.58
2022-07-26T00:14:43.501Z,41.00
2022-07-26T00:17:10.499Z,41.17
2022-07-26T00:19:37.032Z,39.85
2022-07-26T00:22:22.385Z,46.50
2022-07-26T00:24:48.808Z,41.85
2022-07-26T00:27:15.277Z,48.35
2022-07-26T00:29:41.741Z,47.13
2022-07-26T00:32:08.147Z,53.42
2022-07-26T00:34:34.698Z,51.10
2022-07-26T00:37:01.229Z,55.67
2022-07-26T00:39:28.822Z,54.60
2022-07-26T00:41:55.454Z,59.28
2022-07-26T00:44:21.941Z,56.63
2022-07-26T00:46:48.357Z,59.08
2022-07-26T00:49:14.974Z,58.22
2022-07-26T00:51:42.205Z,57.80
2022-07-26T00:54:13.246Z,49.08
2022-07-26T00:56:40.007Z,47.08
2022-07-26T00:59:06.733Z,49.35
2022-07-26T01:01:33.518Z,54.00
2022-07-26T01:04:00.059Z,54.05
2022-07-26T01:06:27.517Z,47.53
2022-07-26T01:08:54.455Z,49.25
2022-07-26T01:11:20.981Z,47.90
2022-07-26T01:13:49.306Z,49.35
2022-07-26T01:16:16.246Z,47.00
2022-07-26T01:18:43.322Z,48.80
2022-07-26T01:21:13.908Z,47.53
2022-07-26T01:23:41.412Z,50.45
2022-07-26T01:26:08.227Z,51.08
2022-07-26T01:28:37.727Z,55.75
2022-07-26T01:31:06.157Z,54.03
2022-07-26T01:33:34.773Z,56.00
2022-07-26T01:36:01.651Z,54.72
2022-07-26T01:38:28.300Z,54.83
2022-07-26T01:40:54.773Z,54.45
2022-07-26T01:43:21.202Z,51.55
2022-07-26T01:45:47.769Z,53.58
2022-07-26T01:48:14.597Z,54.83
2022-07-26T01:50:41.151Z,55.53
2022-07-26T01:53:07.607Z,55.20
2022-07-26T01:55:34.551Z,60.42
2022-07-26T01:58:01.124Z,56.33
2022-07-26T02:00:27.531Z,58.00
2022-07-26T02:02:54.044Z,56.28
2022-07-26T02:05:20.655Z,56.92
2022-07-26T02:07:47.124Z,61.65
2022-07-26T02:10:14.544Z,61.83
2022-07-26T02:12:41.505Z,57.75
2022-07-26T02:15:09.330Z,62.10
2022-07-26T02:17:35.763Z,66.53
2022-07-26T02:20:02.448Z,62.97
2022-07-26T02:22:28.932Z,66.65
2022-07-26T02:24:55.597Z,71.93
2022-07-26T02:27:22.050Z,72.93
2022-07-26T02:29:48.503Z,64.35
2022-07-26T02:32:14.905Z,70.75
2022-07-26T02:34:41.371Z,83.07
2022-07-26T02:37:07.947Z,90.60
2022-07-26T02:39:34.418Z,84.28
2022-07-26T02:42:02.298Z,75.88
2022-07-26T02:44:30.461Z,82.57
2022-07-26T02:47:00.992Z,80.38
2022-07-26T02:49:27.400Z,76.57
2022-07-26T02:51:53.768Z,73.57
2022-07-26T02:54:20.571Z,75.03
2022-07-26T02:56:47.132Z,77.20
2022-07-26T02:59:13.611Z,72.20
2022-07-26T03:02:04.571Z,68.47
2022-07-26T03:04:32.660Z,68.72
2022-07-26T03:06:59.057Z,67.10
2022-07-26T03:09:25.482Z,68.57
2022-07-26T03:14:56.059Z,68.35
2022-07-26T03:17:28.624Z,70.80
2022-07-26T03:19:55.334Z,70.68
2022-07-26T03:22:26.784Z,78.28
2022-07-26T03:24:53.737Z,73.15
2022-07-26T03:27:20.231Z,70.70
2022-07-26T03:32:30.332Z,79.97
2022-07-26T03:35:00.129Z,82.68
2022-07-26T03:37:26.975Z,79.38
2022-07-26T03:40:12.800Z,70.63
2022-07-26T03:42:39.195Z,72.97
2022-07-26T03:45:06.169Z,72.38
2022-07-26T03:47:32.558Z,73.63
2022-07-26T03:49:58.968Z,67.80
2022-07-26T03:52:25.368Z,73.10
2022-07-26T03:54:51.774Z,74.93
2022-07-26T03:57:18.216Z,73.30
2022-07-26T03:59:44.977Z,75.00
2022-07-26T04:02:11.501Z,77.50
2022-07-26T04:04:38.007Z,77.85
2022-07-26T04:07:06.344Z,74.68
2022-07-26T04:09:35.931Z,76.18
2022-07-26T04:12:02.339Z,72.55
2022-07-26T04:14:28.760Z,69.82
2022-07-26T04:19:38.954Z,72.32
2022-07-26T04:22:06.334Z,76.75
2022-07-26T04:24:32.877Z,74.63
2022-07-26T04:27:00.829Z,76.38
2022-07-26T04:29:28.037Z,75.13
2022-07-26T04:34:35.102Z,78.22
2022-07-26T04:37:09.074Z,76.13
2022-07-26T04:39:36.423Z,80.35
2022-07-26T04:42:02.918Z,76.65
2022-07-26T04:44:29.341Z,73.55
2022-07-26T04:46:55.723Z,73.78
2022-07-26T04:49:22.950Z,73.82
2022-07-26T04:51:49.426Z,79.25
2022-07-26T04:54:20.572Z,77.00
2022-07-26T04:56:47.665Z,73.82
2022-07-26T04:59:18.456Z,72.68
2022-07-26T05:01:47.841Z,74.30
2022-07-26T05:04:14.400Z,72.45
2022-07-26T05:06:40.803Z,70.75
2022-07-26T05:09:07.353Z,67.88
2022-07-26T05:11:33.773Z,67.80
2022-07-26T05:14:00.156Z,61.95
2022-07-26T05:16:26.717Z,66.93
2022-07-26T05:18:55.722Z,67.55
2022-07-26T05:21:22.180Z,69.35
2022-07-26T05:23:48.731Z,60.30
2022-07-26T05:26:15.303Z,63.20
2022-07-26T05:28:41.774Z,57.55
2022-07-26T05:31:08.368Z,62.70
2022-07-26T05:33:34.771Z,63.38
2022-07-26T05:36:01.331Z,58.67
2022-07-26T05:38:27.797Z,60.25
2022-07-26T05:40:54.213Z,60.17
2022-07-26T05:43:20.611Z,58.30
2022-07-26T05:45:47.206Z,58.47
2022-07-26T05:48:13.896Z,59.58
2022-07-26T05:50:40.496Z,62.83
2022-07-26T05:53:06.931Z,61.05
2022-07-26T05:55:33.927Z,58.67
2022-07-26T05:58:00.371Z,57.65
2022-07-26T06:00:26.813Z,58.97
2022-07-26T06:02:53.307Z,61.38
2022-07-26T06:05:20.008Z,59.58
2022-07-26T06:07:46.489Z,59.47
2022-07-26T06:10:13.179Z,61.65
2022-07-26T06:12:39.726Z,60.88
2022-07-26T06:15:15.314Z,57.22
2022-07-26T06:17:42.677Z,59.80
2022-07-26T06:20:09.748Z,58.25
2022-07-26T06:22:36.153Z,57.30
2022-07-26T06:25:02.567Z,58.78
2022-07-26T06:27:31.721Z,58.53
2022-07-26T06:29:58.228Z,57.35
2022-07-26T06:32:24.641Z,57.50
2022-07-26T06:34:51.060Z,59.45
2022-07-26T06:37:17.508Z,61.78
2022-07-26T06:39:43.921Z,62.20
2022-07-26T06:42:10.323Z,61.08
2022-07-26T06:44:36.779Z,62.90
2022-07-26T06:47:03.372Z,61.13
2022-07-26T06:49:29.871Z,65.78
2022-07-26T06:51:57.904Z,63.63
2022-07-26T06:54:24.440Z,61.85
2022-07-26T06:56:50.892Z,58.33
2022-07-26T06:59:17.341Z,60.95
2022-07-26T07:01:58.721Z,55.13
2022-07-26T07:04:27.224Z,56.03
2022-07-26T07:06:53.688Z,56.33
2022-07-26T07:09:21.609Z,54.25
2022-07-26T07:11:51.765Z,56.75
2022-07-26T07:14:22.745Z,56.45
2022-07-26T07:16:49.186Z,57.47
2022-07-26T07:19:15.682Z,59.88
2022-07-26T07:21:42.092Z,58.63
2022-07-26T07:24:09.634Z,62.30
2022-07-26T07:26:36.823Z,61.72
2022-07-26T07:29:04.274Z,60.38
2022-07-26T07:31:48.723Z,54.47
2022-07-26T07:34:18.106Z,60.75
2022-07-26T07:36:46.454Z,60.95
2022-07-26T07:39:17.644Z,63.35
2022-07-26T07:41:45.026Z,60.50
2022-07-26T07:44:11.810Z,58.80
2022-07-26T07:46:38.813Z,54.88
2022-07-26T07:49:05.854Z,55.67
2022-07-26T07:51:33.322Z,49.90
2022-07-26T07:54:06.058Z,51.17
2022-07-26T07:56:33.474Z,52.42
2022-07-26T07:59:00.104Z,52.13
2022-07-26T08:01:39.578Z,55.15
2022-07-26T08:04:07.944Z,52.17
2022-07-26T08:06:34.453Z,53.10
2022-07-26T08:09:01.069Z,53.47
2022-07-26T08:11:30.477Z,53.70
2022-07-26T08:13:57.203Z,54.85
2022-07-26T08:16:24.465Z,54.72
2022-07-26T08:18:57.047Z,52.53
2022-07-26T08:21:24.673Z,53.55
2022-07-26T08:23:54.039Z,53.35
2022-07-26T08:26:20.644Z,51.38
2022-07-26T08:28:48.175Z,52.15
2022-07-26T08:31:16.882Z,49.22
2022-07-26T08:33:52.826Z,47.67
2022-07-26T08:36:19.289Z,49.28
2022-07-26T08:38:46.320Z,46.13
2022-07-26T08:41:14.973Z,46.35
2022-07-26T08:43:43.763Z,43.78
2022-07-26T08:46:24.340Z,40.38
2022-07-26T08:48:52.355Z,35.97
2022-07-26T08:51:22.382Z,38.55
2022-07-26T08:53:50.233Z,38.63
2022-07-26T08:56:16.619Z,35.92
2022-07-26T08:58:43.788Z,49.60
2022-07-26T09:01:23.056Z,45.33
2022-07-26T09:03:52.075Z,51.90
2022-07-26T09:06:21.926Z,50.20
2022-07-26T09:08:52.894Z,45.22
2022-07-26T09:11:31.121Z,49.53
2022-07-26T09:14:06.725Z,46.05
2022-07-26T09:16:39.497Z,46.15
2022-07-26T09:19:21.344Z,45.97
2022-07-26T09:21:49.116Z,40.67
2022-07-26T09:24:35.004Z,40.83
2022-07-26T09:27:05.200Z,40.97
2022-07-26T09:29:43.158Z,43.97
2022-07-26T09:32:12.588Z,50.88
2022-07-26T09:34:51.953Z,45.83
2022-07-26T09:37:34.487Z,42.40
2022-07-26T09:40:17.439Z,41.15
2022-07-26T09:43:02.237Z,39.83
2022-07-26T09:45:30.822Z,39.53
2022-07-26T09:47:57.818Z,35.88
2022-07-26T09:50:27.862Z,36.25
2022-07-26T09:53:02.129Z,43.25
2022-07-26T09:55:39.309Z,49.80
2022-07-26T09:58:13.899Z,43.33
2022-07-26T10:00:40.682Z,43.53
2022-07-26T10:03:10.131Z,43.28
2022-07-26T10:05:37.875Z,41.67
2022-07-26T10:08:05.385Z,41.13
2022-07-26T10:10:38.985Z,40.25
2022-07-26T10:13:08.019Z,39.47
2022-07-26T10:15:38.455Z,44.42
2022-07-26T10:18:08.436Z,49.25
2022-07-26T10:20:49.912Z,49.03
2022-07-26T10:23:40.134Z,49.03
2022-07-26T10:26:21.370Z,33.47
2022-07-26T10:28:47.955Z,35.90
2022-07-26T10:31:51.293Z,39.00
2022-07-26T10:34:56.472Z,37.35
2022-07-26T10:40:22.320Z,32.53
2022-07-26T10:42:48.810Z,34.80
2022-07-26T10:45:21.219Z,28.00
2022-07-26T10:48:17.154Z,25.50
2022-07-26T10:50:46.719Z,38.00
2022-07-26T10:53:19.200Z,32.83
2022-07-26T10:55:53.635Z,27.92
2022-07-26T10:58:21.920Z,27.00
2022-07-26T11:01:03.295Z,25.55
2022-07-26T11:03:41.559Z,29.40
2022-07-26T11:06:12.245Z,30.92
2022-07-26T11:08:38.792Z,30.88
2022-07-26T11:11:05.457Z,38.95
2022-07-26T11:13:33.473Z,28.13
2022-07-26T11:16:02.609Z,21.77
2022-07-26T11:18:32.566Z,21.13
2022-07-26T11:21:15.648Z,21.63
2022-07-26T11:23:46.551Z,20.73
2022-07-26T11:26:23.269Z,20.42
2022-07-26T11:28:55.520Z,19.27
2022-07-26T11:31:55.871Z,21.65
2022-07-26T11:34:29.371Z,21.55
2022-07-26T11:36:58.905Z,25.00
2022-07-26T11:39:27.938Z,28.02
2022-07-26T11:42:01.651Z,35.38
2022-07-26T11:44:29.089Z,30.95
2022-07-26T11:46:57.643Z,33.40
2022-07-26T11:49:59.700Z,34.17
2022-07-26T11:52:25.058Z,37.97
2022-07-26T11:54:53.184Z,41.42
2022-07-26T11:57:20.113Z,37.17
2022-07-26T11:59:48.463Z,40.85
2022-07-26T12:02:15.506Z,41.83
2022-07-26T12:04:43.492Z,33.40
2022-07-26T12:07:12.346Z,33.67
2022-07-26T12:10:01.489Z,32.78
2022-07-26T12:12:31.054Z,40.85
2022-07-26T12:15:02.673Z,36.65
2022-07-26T12:17:35.129Z,30.55
2022-07-26T12:20:17.566Z,23.80
2022-07-26T12:23:04.952Z,22.45
2022-07-26T12:25:31.621Z,24.10
2022-07-26T12:27:58.090Z,21.63
2022-07-26T12:30:25.636Z,22.38
2022-07-26T12:33:02.117Z,22.02
2022-07-26T12:35:33.343Z,21.55
2022-07-26T12:37:59.955Z,18.35
2022-07-26T12:40:29.305Z,22.10
2022-07-26T12:43:01.253Z,21.13
2022-07-26T12:45:32.565Z,21.58
2022-07-26T12:48:00.870Z,18.10
2022-07-26T12:50:29.071Z,21.20
2022-07-26T12:53:07.091Z,20.45
2022-07-26T12:55:34.433Z,22.58
2022-07-26T12:58:01.271Z,23.67
2022-07-26T13:00:29.616Z,26.27
2022-07-26T13:02:57.191Z,23.80
2022-07-26T13:05:24.022Z,23.88
2022-07-26T13:07:52.785Z,23.17
2022-07-26T13:10:48.305Z,25.55
2022-07-26T13:13:16.464Z,22.65
2022-07-26T13:15:44.442Z,25.52
2022-07-26T13:18:12.948Z,22.60
2022-07-26T13:20:39.446Z,25.83
2022-07-26T13:23:12.720Z,24.70
2022-07-26T13:25:40.891Z,25.55
2022-07-26T13:28:10.040Z,22.35
2022-07-26T13:30:47.216Z,21.70
2022-07-26T13:33:16.347Z,21.73
2022-07-26T13:35:42.920Z,18.50
2022-07-26T13:38:10.089Z,17.40
2022-07-26T13:40:36.583Z,25.88
2022-07-26T13:43:07.409Z,19.40
2022-07-26T13:45:38.366Z,16.48
2022-07-26T13:48:05.656Z,19.30
2022-07-26T13:50:32.179Z,19.42
2022-07-26T13:52:59.178Z,19.05
2022-07-26T13:55:28.804Z,20.02
2022-07-26T13:57:56.636Z,18.30
2022-07-26T14:00:25.517Z,17.48
2022-07-26T14:02:52.094Z,16.52
2022-07-26T14:05:20.588Z,19.50
2022-07-26T14:07:50.596Z,21.17
2022-07-26T14:13:01.067Z,18.60
2022-07-26T14:15:27.439Z,22.00
2022-07-26T14:18:00.553Z,22.85
2022-07-26T14:20:27.353Z,25.25
2022-07-26T14:22:56.897Z,22.60
2022-07-26T14:25:25.563Z,20.52
2022-07-26T14:27:53.609Z,17.63
2022-07-26T14:30:27.380Z,19.63
2022-07-26T14:32:57.378Z,19.85
2022-07-26T14:35:25.673Z,19.25
2022-07-26T14:37:59.419Z,21.60
2022-07-26T14:40:26.148Z,19.67
2022-07-26T14:42:55.527Z,17.77
2022-07-26T14:45:38.378Z,17.95
2022-07-26T14:48:51.937Z,16.05
2022-07-26T14:51:21.149Z,17.65
2022-07-26T14:53:51.207Z,15.30
2022-07-26T14:56:40.619Z,17.52
2022-07-26T14:59:50.708Z,16.48
2022-07-26T15:02:29.331Z,18.52
2022-07-26T15:05:03.675Z,19.60
2022-07-26T15:07:47.930Z,18.92
2022-07-26T15:10:20.746Z,18.77
2022-07-26T15:12:52.174Z,16.83
2022-07-26T15:15:18.766Z,16.63
2022-07-26T15:17:53.488Z,19.63
2022-07-26T15:29:18.832Z,16.52
2022-07-26T15:35:01.735Z,15.10
2022-07-26T15:37:28.799Z,16.23
2022-07-26T15:40:13.995Z,19.17
2022-07-26T15:42:47.402Z,21.33
2022-07-26T15:45:15.372Z,17.90
2022-07-26T15:47:54.875Z,17.38
2022-07-26T15:50:29.975Z,14.32
2022-07-26T15:52:56.677Z,15.23
2022-07-26T15:55:23.618Z,14.90
2022-07-26T15:57:50.116Z,14.02
2022-07-26T16:00:17.037Z,13.85
2022-07-26T16:02:54.024Z,13.85
2022-07-26T16:05:20.905Z,13.45
2022-07-26T16:07:47.856Z,16.92
2022-07-26T16:10:14.832Z,17.25
2022-07-26T16:12:42.212Z,16.52
2022-07-26T16:15:10.383Z,14.23
2022-07-26T16:17:37.354Z,17.75
2022-07-26T16:20:04.763Z,17.58
2022-07-26T16:22:42.644Z,18.50
2022-07-26T16:25:10.115Z,18.67
2022-07-26T16:27:41.821Z,21.83
2022-07-26T16:30:43.706Z,20.85
2022-07-26T16:33:20.065Z,20.05
2022-07-26T16:35:48.492Z,22.25
2022-07-26T16:38:24.929Z,21.17
2022-07-26T16:40:53.175Z,23.13
2022-07-26T16:43:20.853Z,22.23
2022-07-26T16:45:47.278Z,22.23
2022-07-26T16:48:13.796Z,23.30
2022-07-26T16:50:40.679Z,21.50
2022-07-26T16:53:10.391Z,20.70
2022-07-26T16:55:39.543Z,21.00
2022-07-26T16:58:05.980Z,19.17
2022-07-26T17:00:32.442Z,19.95
2022-07-26T17:02:59.051Z,23.50
2022-07-26T17:05:25.489Z,18.88
2022-07-26T17:07:52.127Z,18.88
2022-07-26T17:10:18.778Z,19.83
2022-07-26T17:12:45.646Z,19.70
2022-07-26T17:15:13.809Z,17.73
2022-07-26T17:17:41.562Z,21.15
2022-07-26T17:20:10.568Z,19.58
2022-07-26T17:22:37.182Z,18.77
2022-07-26T17:25:05.340Z,20.48
2022-07-26T17:27:31.740Z,20.33
2022-07-26T17:29:59.887Z,20.08
2022-07-26T17:32:29.573Z,24.20
2022-07-26T17:34:56.279Z,20.00
2022-07-26T17:37:22.775Z,21.73
2022-07-26T17:39:52.551Z,23.45
2022-07-26T17:42:20.205Z,21.75
2022-07-26T17:44:46.687Z,19.95
2022-07-26T17:47:28.486Z,18.95
2022-07-26T17:50:08.961Z,19.58
2022-07-26T17:52:45.080Z,20.38
2022-07-26T17:55:11.531Z,23.17
2022-07-26T17:57:38.093Z,29.30
2022-07-26T18:00:06.687Z,35.05
2022-07-26T18:02:33.484Z,33.20
2022-07-26T18:04:59.986Z,46.13
2022-07-26T18:07:26.483Z,34.95
2022-07-26T18:09:52.899Z,31.67
2022-07-26T18:12:19.348Z,33.03
2022-07-26T18:14:45.782Z,32.58
2022-07-26T18:17:12.340Z,34.22
2022-07-26T18:19:38.796Z,30.40
2022-07-26T18:22:06.238Z,28.27
2022-07-26T18:24:33.089Z,28.90
2022-07-26T18:26:59.523Z,29.25
2022-07-26T18:29:25.993Z,28.88
2022-07-26T18:31:52.536Z,29.08
2022-07-26T18:34:19.031Z,32.75
2022-07-26T18:36:45.481Z,34.28
2022-07-26T18:39:12.496Z,33.75
2022-07-26T18:41:39.153Z,34.15
2022-07-26T18:44:05.886Z,32.08
2022-07-26T18:46:32.367Z,33.35
2022-07-26T18:49:00.246Z,33.30
2022-07-26T18:51:28.776Z,37.70
2022-07-26T18:53:55.257Z,31.95
2022-07-26T18:56:21.717Z,28.60
2022-07-26T18:58:48.144Z,33.80
2022-07-26T19:01:14.806Z,28.92
2022-07-26T19:03:41.273Z,28.58
2022-07-26T19:06:08.645Z,31.17
2022-07-26T19:08:35.043Z,31.83
2022-07-26T19:11:01.480Z,33.17
2022-07-26T19:13:27.913Z,37.25
2022-07-26T19:15:54.531Z,38.83
2022-07-26T19:18:20.957Z,43.08
2022-07-26T19:20:47.384Z,39.92
2022-07-26T19:23:13.938Z,38.28
2022-07-26T19:25:41.427Z,46.13
2022-07-26T19:28:08.561Z,43.10
2022-07-26T19:30:36.698Z,46.60
2022-07-26T19:33:03.205Z,41.83
2022-07-26T19:35:30.429Z,45.17
2022-07-26T19:37:57.390Z,48.75
2022-07-26T19:40:24.007Z,57.70
2022-07-26T19:42:50.430Z,42.83
2022-07-26T19:45:16.937Z,44.08
2022-07-26T19:47:44.377Z,43.90
2022-07-26T19:50:11.830Z,44.88
2022-07-26T19:52:39.057Z,44.15
2022-07-26T19:55:06.119Z,44.22
2022-07-26T19:57:32.582Z,40.17
2022-07-26T20:00:00.491Z,37.75
2022-07-26T20:02:26.935Z,39.22
2022-07-26T20:04:54.473Z,37.03
2022-07-26T20:07:21.139Z,35.55
2022-07-26T20:09:49.121Z,52.45
2022-07-26T20:12:16.181Z,45.60
2022-07-26T20:14:42.978Z,42.92
2022-07-26T20:17:12.019Z,46.90
2022-07-26T20:19:39.782Z,51.83
2022-07-26T20:22:06.610Z,56.50
2022-07-26T20:24:33.102Z,58.45
2022-07-26T20:26:59.656Z,46.28
2022-07-26T20:29:26.131Z,54.28
2022-07-26T20:31:52.550Z,59.92
2022-07-26T20:34:18.999Z,58.30
2022-07-26T20:36:46.035Z,67.75
2022-07-26T20:39:13.055Z,77.45
2022-07-26T20:41:39.925Z,72.38
2022-07-26T20:44:06.545Z,70.68
2022-07-26T20:46:33.547Z,72.72
2022-07-26T20:49:00.205Z,73.18
2022-07-26T20:51:26.659Z,71.10
2022-07-26T20:53:53.138Z,71.63
2022-07-26T20:56:19.550Z,69.53
2022-07-26T20:58:45.983Z,66.82
2022-07-26T21:01:13.823Z,68.90
2022-07-26T21:03:40.457Z,70.18
2022-07-26T21:06:06.987Z,70.72
2022-07-26T21:08:33.374Z,68.80
2022-07-26T21:10:59.797Z,66.78
2022-07-26T21:13:26.236Z,68.45
2022-07-26T21:15:54.244Z,54.03
2022-07-26T21:18:21.313Z,65.50
2022-07-26T21:20:47.966Z,45.72
2022-07-26T21:23:17.897Z,28.92
2022-07-26T21:25:44.911Z,27.13
2022-07-26T21:28:11.442Z,23.73
2022-07-26T21:30:38.324Z,22.17
2022-07-26T21:33:05.497Z,18.52
2022-07-26T21:35:32.304Z,18.15
2022-07-26T21:37:58.843Z,19.45
2022-07-26T21:40:25.461Z,21.33
2022-07-26T21:42:51.961Z,20.17
2022-07-26T21:45:18.553Z,20.33
2022-07-26T21:47:45.002Z,18.50
2022-07-26T21:50:12.129Z,19.67
2022-07-26T21:52:38.544Z,23.83
2022-07-26T21:55:05.601Z,17.92
2022-07-26T21:57:31.998Z,22.38
2022-07-26T21:59:59.161Z,31.98
2022-07-26T22:02:26.054Z,18.50
2022-07-26T22:04:52.519Z,21.48
2022-07-26T22:07:18.925Z,23.20
2022-07-26T22:09:45.368Z,16.52
2022-07-26T22:12:11.799Z,21.65
2022-07-26T22:14:38.261Z,20.48
2022-07-26T22:17:04.731Z,20.98
2022-07-26T22:19:31.230Z,19.92
2022-07-26T22:21:57.711Z,19.63
2022-07-26T22:24:24.150Z,21.67
2022-07-26T22:26:50.562Z,23.70
2022-07-26T22:29:17.001Z,19.63
2022-07-26T22:31:43.526Z,24.10
2022-07-26T22:34:10.137Z,22.90
2022-07-26T22:36:36.563Z,24.75
2022-07-26T22:39:03.202Z,21.48
2022-07-26T22:41:31.705Z,21.55
2022-07-26T22:43:59.112Z,27.02
2022-07-26T22:46:27.630Z,23.23
2022-07-26T22:48:55.707Z,22.00
2022-07-26T22:51:22.167Z,22.02
2022-07-26T22:53:48.588Z,22.00
2022-07-26T22:56:19.680Z,26.10
2022-07-26T22:58:46.834Z,23.58
2022-07-26T23:01:13.702Z,21.95
2022-07-26T23:03:41.429Z,22.27
2022-07-26T23:06:21.009Z,25.23
2022-07-26T23:08:57.296Z,22.55
2022-07-26T23:11:23.733Z,21.95
2022-07-26T23:13:50.142Z,22.13
2022-07-26T23:16:16.644Z,21.63
2022-07-26T23:18:43.074Z,20.50
2022-07-26T23:21:09.526Z,21.08
2022-07-26T23:23:35.973Z,21.15
2022-07-26T23:26:02.470Z,22.83
2022-07-26T23:28:36.210Z,21.85
2022-07-26T23:31:09.038Z,21.38
2022-07-26T23:33:52.594Z,21.25
2022-07-26T23:36:30.237Z,18.33
2022-07-26T23:38:58.706Z,19.52
2022-07-26T23:41:26.547Z,17.65
2022-07-26T23:43:54.023Z,20.45
2022-07-26T23:46:20.950Z,19.15
2022-07-26T23:48:47.543Z,20.35
2022-07-26T23:51:14.768Z,19.85
2022-07-26T23:53:41.334Z,19.13
2022-07-26T23:56:08.020Z,19.40
2022-07-26T23:58:34.444Z,20.40
